Time;durP1;ratioP1;P1;durP2;ratioP2;P2;SDS_P1;SDS_P2;PMS_P1;PMS_P2;Temp;Humidity;BMP_temperature;BMP_pressure;BME280_temperature;BME280_humidity;BME280_pressure;Samples;Min_cycle;Max_cycle;Signal;HPM_P1;HPM_P2
2021/12/25 07:06:48;;;;;;;;;;;;;;;5.98;71.54;95861.56;4246419;27;10098;-72
2021/12/25 07:08:51;;;;;;;;;;;;;;;6.05;71.27;95852.78;4230478;28;5736;-72
2021/12/25 07:10:54;;;;;;;;;;;;;;;6.12;71.27;95860.72;4229582;28;6423;-73
2021/12/25 07:12:56;;;;;;;;;;;;;;;6.05;71.17;95854.59;4229842;28;5732;-73
2021/12/25 07:14:57;;;;;;;;;;;;;;;6.05;70.81;95855.41;4229338;28;5644;-73
2021/12/25 07:16:59;;;;;;;;;;;;;;;6.22;71.25;95860.38;4230254;28;5619;-73
2021/12/25 07:19:02;;;;;;;;;;;;;;;6.35;71.00;95855.28;4229387;28;5811;-73
2021/12/25 07:21:05;;;;;;;;;;;;;;;6.33;70.15;95858.06;4210797;28;5875;-73
2021/12/25 07:23:07;;;;;;;;;;;;;;;6.25;70.12;95866.09;4229810;28;6311;-73
2021/12/25 07:25:09;;;;;;;;;;;;;;;6.29;69.93;95872.56;4230252;28;5623;-73
2021/12/25 07:27:11;;;;;;;;;;;;;;;6.25;70.15;95873.97;4227915;28;5624;-72
2021/12/25 07:29:13;;;;;;;;;;;;;;;6.12;70.07;95864.16;4229828;28;5723;-73
2021/12/25 07:31:18;;;;;;;;;;;;;;;6.30;70.16;95868.13;4230103;28;5719;-73
2021/12/25 07:33:21;;;;;;;;;;;;;;;6.28;69.91;95870.94;4229715;28;5707;-73
2021/12/25 07:35:27;;;;;;;;;;;;;;;6.34;69.54;95875.47;4212190;28;5741;-73
2021/12/25 07:37:28;;;;;;;;;;;;;;;6.42;69.46;95872.69;4229091;28;5758;-73
2021/12/25 07:39:30;;;;;;;;;;;;;;;6.25;68.96;95863.47;4228768;28;5833;-73
2021/12/25 07:41:33;;;;;;;;;;;;;;;6.19;69.64;95872.06;4229840;28;5707;-73
2021/12/25 07:43:34;;;;;;;;;;;;;;;6.22;69.66;95871.69;4227999;28;5623;-73
2021/12/25 07:45:37;;;;;;;;;;;;;;;6.30;69.05;95876.00;4229099;28;5548;-73
2021/12/25 07:47:45;;;;;;;;;;;;;;;6.25;69.22;95862.66;4211436;28;5739;-73
2021/12/25 07:49:48;;;;;;;;;;;;;;;6.29;69.41;95863.88;4195185;28;5868;-73
2021/12/25 07:51:49;;;;;;;;;;;;;;;6.32;69.39;95853.81;4194334;28;5757;-73
2021/12/25 07:53:51;;;;;;;;;;;;;;;6.51;69.44;95862.06;4227453;28;5838;-72
2021/12/25 07:55:53;;;;;;;;;;;;;;;6.43;69.11;95861.16;4209961;28;5773;-72
2021/12/25 07:57:54;;;;;;;;;;;;;;;6.40;69.58;95856.31;4216381;28;5762;-72
2021/12/25 07:59:56;;;;;;;;;;;;;;;6.49;69.17;95864.06;4194312;28;5775;-73
2021/12/25 08:01:57;;;;;;;;;;;;;;;6.51;69.57;95851.53;4210640;28;5865;-73
2021/12/25 08:03:59;;;;;;;;;;;;;;;6.43;70.08;95849.88;4194396;28;5855;-72
2021/12/25 08:06:02;;;;;;;;;;;;;;;6.54;69.68;95853.78;4211334;28;6145;-73
2021/12/25 08:08:07;;;;;;;;;;;;;;;6.69;69.46;95857.16;4201104;28;5655;-73
2021/12/25 08:10:13;;;;;;;;;;;;;;;6.57;70.27;95853.41;4182178;28;5867;-73
2021/12/25 08:12:15;;;;;;;;;;;;;;;6.51;70.45;95843.66;4199859;28;6228;-73
2021/12/25 08:14:18;;;;;;;;;;;;;;;6.38;71.14;95850.44;4200448;28;5665;-73
2021/12/25 08:16:20;;;;;;;;;;;;;;;6.54;70.75;95859.03;4199862;28;5742;-73
2021/12/25 08:18:22;;;;;;;;;;;;;;;6.67;70.24;95853.88;4201262;28;5722;-73
2021/12/25 08:20:25;;;;;;;;;;;;;;;6.79;70.12;95860.22;4182429;28;5757;-73
2021/12/25 08:22:26;;;;;;;;;;;;;;;6.83;70.01;95860.66;4200310;28;5639;-73
2021/12/25 08:24:28;;;;;;;;;;;;;;;6.62;70.35;95849.22;4200195;28;5634;-73
2021/12/25 08:26:32;;;;;;;;;;;;;;;6.64;70.56;95851.63;4182718;28;5890;-73
2021/12/25 08:28:34;;;;;;;;;;;;;;;6.76;69.92;95863.22;4200086;28;5777;-73
2021/12/25 08:30:35;;;;;;;;;;;;;;;6.86;70.09;95868.16;4201131;28;5630;-73
2021/12/25 08:32:42;;;;;;;;;;;;;;;6.66;70.63;95860.13;4181859;28;5887;-73
2021/12/25 08:34:44;;;;;;;;;;;;;;;6.86;70.10;95871.59;4200776;28;5889;-73
2021/12/25 08:36:45;;;;;;;;;;;;;;;6.95;69.91;95872.25;4200872;28;5724;-73
2021/12/25 08:38:47;;;;;;;;;;;;;;;6.80;70.35;95875.00;4200895;28;5734;-72
2021/12/25 08:40:54;;;;;;;;;;;;;;;6.85;70.54;95879.66;4200020;28;5642;-73
2021/12/25 08:42:59;;;;;;;;;;;;;;;6.96;70.00;95879.94;4199149;28;5917;-73
2021/12/25 08:47:05;;;;;;;;;;;;;;;7.08;70.03;95867.06;4184085;28;5744;-73
2021/12/25 08:49:06;;;;;;;;;;;;;;;6.91;70.63;95871.03;4162650;28;5776;-73
2021/12/25 08:51:08;;;;;;;;;;;;;;;6.82;71.43;95866.94;4196556;28;5752;-73
2021/12/25 08:53:09;;;;;;;;;;;;;;;7.05;70.60;95870.09;4180621;28;5890;-73
2021/12/25 08:55:11;;;;;;;;;;;;;;;6.98;70.71;95859.53;4196051;28;5110;-72
2021/12/25 08:57:21;;;;;;;;;;;;;;;6.87;71.19;95860.06;4199968;28;5733;-73
2021/12/25 08:59:22;;;;;;;;;;;;;;;7.00;70.71;95859.34;4200475;28;5739;-73
2021/12/25 09:01:24;;;;;;;;;;;;;;;6.99;70.63;95869.03;4200279;28;5801;-73
2021/12/25 09:03:27;;;;;;;;;;;;;;;7.04;70.74;95865.84;4200211;28;5945;-73
2021/12/25 09:05:29;;;;;;;;;;;;;;;6.95;70.93;95870.44;4200148;28;6940;-73
2021/12/25 09:07:31;;;;;;;;;;;;;;;7.09;70.06;95860.00;4198535;28;5778;-73
2021/12/25 09:09:33;;;;;;;;;;;;;;;6.94;69.96;95866.19;4200323;28;5725;-73
2021/12/25 09:11:36;;;;;;;;;;;;;;;7.09;70.24;95867.88;4200435;28;5802;-73
2021/12/25 09:13:38;;;;;;;;;;;;;;;7.20;70.05;95870.78;4200077;28;5749;-73
2021/12/25 09:15:40;;;;;;;;;;;;;;;7.27;70.02;95873.47;4200109;28;5785;-73
2021/12/25 09:17:42;;;;;;;;;;;;;;;7.26;69.77;95871.84;4200011;28;5718;-73
2021/12/25 09:19:44;;;;;;;;;;;;;;;7.21;69.78;95874.22;4199648;28;5687;-73
2021/12/25 09:21:46;;;;;;;;;;;;;;;7.34;69.86;95873.47;4200233;28;5730;-73
2021/12/25 09:23:48;;;;;;;;;;;;;;;7.43;69.44;95873.13;4180674;28;5657;-73
2021/12/25 09:25:52;;;;;;;;;;;;;;;7.40;69.15;95876.16;4180511;28;5730;-72
2021/12/25 09:27:54;;;;;;;;;;;;;;;7.22;69.60;95871.41;4174344;28;5913;-72
2021/12/25 09:29:56;;;;;;;;;;;;;;;7.02;70.21;95880.97;4195344;28;5829;-72
2021/12/25 09:31:58;;;;;;;;;;;;;;;6.90;70.94;95880.69;4193986;28;5843;-72
2021/12/25 09:33:59;;;;;;;;;;;;;;;7.08;70.75;95876.78;4196741;28;5733;-72
2021/12/25 09:36:02;;;;;;;;;;;;;;;6.99;70.54;95881.38;4195246;28;5838;-73
2021/12/25 09:38:04;;;;;;;;;;;;;;;7.15;70.17;95882.91;4192327;28;5761;-73
2021/12/25 09:40:07;;;;;;;;;;;;;;;7.14;70.66;95883.91;4179787;28;6469;-72
2021/12/25 09:42:10;;;;;;;;;;;;;;;7.17;70.42;95881.69;4179659;28;5856;-71
2021/12/25 09:44:11;;;;;;;;;;;;;;;7.23;70.53;95887.97;4176775;28;5776;-72
2021/12/25 09:46:18;;;;;;;;;;;;;;;7.40;70.19;95881.41;4178563;28;5782;-71
2021/12/25 09:48:20;;;;;;;;;;;;;;;7.24;69.85;95885.16;4195361;28;5806;-72
2021/12/25 09:50:21;;;;;;;;;;;;;;;7.39;69.76;95884.22;4195216;28;5861;-72
2021/12/25 09:52:24;;;;;;;;;;;;;;;7.42;68.49;95878.56;4198271;28;5733;-72
2021/12/25 09:54:26;;;;;;;;;;;;;;;7.46;68.94;95880.59;4178344;28;5781;-72
2021/12/25 09:56:29;;;;;;;;;;;;;;;7.49;68.57;95887.31;4196068;28;5725;-73
2021/12/25 09:58:31;;;;;;;;;;;;;;;7.29;68.80;95880.13;4175484;28;5666;-73
2021/12/25 10:00:36;;;;;;;;;;;;;;;7.32;68.99;95878.94;4195145;28;6313;-73
2021/12/25 10:02:57;;;;;;;;;;;;;;;7.39;68.30;95877.16;4182619;28;5761;-71
2021/12/25 10:05:02;;;;;;;;;;;;;;;7.43;67.58;95878.38;4197835;28;5631;-72
2021/12/25 10:07:25;;;;;;;;;;;;;;;7.31;67.84;95874.69;4198282;28;5721;-72
2021/12/25 10:09:26;;;;;;;;;;;;;;;7.30;67.46;95870.44;4192220;28;5646;-73
2021/12/25 10:11:30;;;;;;;;;;;;;;;7.38;67.42;95861.56;4195651;28;5656;-73
2021/12/25 10:13:41;;;;;;;;;;;;;;;7.40;68.00;95868.25;4181462;28;5723;-73
2021/12/25 10:15:42;;;;;;;;;;;;;;;7.37;68.73;95867.84;4202247;28;5627;-73
2021/12/25 10:17:50;;;;;;;;;;;;;;;7.47;68.88;95866.44;4184672;28;5634;-73
2021/12/25 10:20:12;;;;;;;;;;;;;;;7.41;69.35;95872.50;4202082;28;5647;-74
2021/12/25 10:22:15;;;;;;;;;;;;;;;7.45;69.52;95879.00;4202197;28;5631;-74
2021/12/25 10:24:29;;;;;;;;;;;;;;;7.40;69.28;95880.59;4168162;28;5653;-73
2021/12/25 10:26:31;;;;;;;;;;;;;;;7.39;69.51;95879.78;4186020;28;5701;-73
2021/12/25 10:28:38;;;;;;;;;;;;;;;7.59;69.21;95882.50;4201944;28;5643;-74
2021/12/25 10:30:58;;;;;;;;;;;;;;;7.46;70.08;95883.25;4202066;28;5623;-74
2021/12/25 10:33:00;;;;;;;;;;;;;;;7.48;71.29;95876.00;4186733;28;5650;-74
2021/12/25 10:35:15;;;;;;;;;;;;;;;7.41;70.68;95872.50;4202344;28;5623;-74
2021/12/25 10:37:21;;;;;;;;;;;;;;;7.43;70.79;95873.13;4202034;28;5643;-74
2021/12/25 10:39:27;;;;;;;;;;;;;;;7.47;70.45;95874.34;4184087;28;5642;-75
2021/12/25 10:41:29;;;;;;;;;;;;;;;7.51;69.95;95866.88;4184205;28;5754;-74
2021/12/25 10:43:30;;;;;;;;;;;;;;;7.68;69.72;95867.34;4202040;28;5627;-74
2021/12/25 10:45:33;;;;;;;;;;;;;;;7.52;68.62;95865.88;4202048;28;5753;-74
2021/12/25 10:47:34;;;;;;;;;;;;;;;7.60;68.34;95865.72;4202474;28;5634;-74
2021/12/25 10:49:41;;;;;;;;;;;;;;;7.67;68.07;95863.09;4184346;28;5657;-74
2021/12/25 10:51:43;;;;;;;;;;;;;;;7.68;67.74;95860.25;4202013;28;5714;-74
2021/12/25 10:53:51;;;;;;;;;;;;;;;7.72;68.16;95858.06;4183983;28;5704;-74
2021/12/25 10:56:04;;;;;;;;;;;;;;;7.68;68.36;95851.56;4183878;28;5646;-74
2021/12/25 10:58:21;;;;;;;;;;;;;;;7.74;67.87;95850.78;4183763;28;5679;-74
2021/12/25 11:00:32;;;;;;;;;;;;;;;7.82;68.28;95858.50;4184609;28;5642;-74
2021/12/25 11:02:57;;;;;;;;;;;;;;;7.93;68.34;95862.34;4202083;28;5803;-74
2021/12/25 11:04:59;;;;;;;;;;;;;;;8.00;68.34;95857.91;4183996;28;5654;-74
2021/12/25 11:07:14;;;;;;;;;;;;;;;8.04;68.92;95859.13;4169190;28;5732;-74
2021/12/25 11:09:16;;;;;;;;;;;;;;;8.04;68.76;95846.81;4167488;28;5059;-74
2021/12/25 11:11:20;;;;;;;;;;;;;;;7.93;68.96;95850.03;4168755;28;5728;-73
2021/12/25 11:13:23;;;;;;;;;;;;;;;7.97;68.95;95839.91;4167548;28;5738;-74
2021/12/25 11:15:30;;;;;;;;;;;;;;;7.87;69.47;95840.28;4167217;28;5689;-74
2021/12/25 11:17:34;;;;;;;;;;;;;;;7.81;68.97;95836.66;4167519;28;5059;-74
2021/12/25 11:19:48;;;;;;;;;;;;;;;7.89;69.06;95836.44;4168019;28;5717;-74
2021/12/25 11:21:54;;;;;;;;;;;;;;;7.95;68.73;95826.13;4169067;28;5735;-74
2021/12/25 11:24:21;;;;;;;;;;;;;;;8.06;68.67;95834.25;4168492;28;5779;-74
2021/12/25 11:26:22;;;;;;;;;;;;;;;8.03;68.39;95829.38;4167297;28;5672;-74
2021/12/25 11:28:25;;;;;;;;;;;;;;;7.96;67.66;95827.75;4167414;28;5719;-74
2021/12/25 11:30:31;;;;;;;;;;;;;;;7.83;66.84;95829.34;4168590;28;5717;-74
2021/12/25 11:32:33;;;;;;;;;;;;;;;7.92;67.13;95835.22;4167605;28;5661;-74
2021/12/25 11:34:35;;;;;;;;;;;;;;;7.98;66.81;95837.06;4167343;28;5672;-74
2021/12/25 11:36:41;;;;;;;;;;;;;;;8.09;66.79;95838.31;4167328;28;5840;-73
2021/12/25 11:38:44;;;;;;;;;;;;;;;8.01;65.98;95836.66;4151089;28;5652;-74
2021/12/25 11:40:51;;;;;;;;;;;;;;;8.03;66.45;95832.00;4168478;28;5791;-74
2021/12/25 11:42:56;;;;;;;;;;;;;;;8.04;66.13;95827.53;4170835;28;5745;-74
2021/12/25 11:45:11;;;;;;;;;;;;;;;7.99;65.05;95825.53;4170534;28;5660;-74
2021/12/25 11:47:31;;;;;;;;;;;;;;;7.53;66.36;95818.34;4171520;28;5833;-74
2021/12/25 11:49:51;;;;;;;;;;;;;;;7.49;66.33;95822.38;4171525;28;5720;-74
2021/12/25 11:51:53;;;;;;;;;;;;;;;7.48;66.26;95818.13;4170305;28;5664;-74
2021/12/25 11:54:13;;;;;;;;;;;;;;;7.73;66.39;95815.78;4170125;28;5665;-74
2021/12/25 11:56:29;;;;;;;;;;;;;;;7.75;66.16;95816.38;4171418;28;5848;-74
2021/12/25 11:58:50;;;;;;;;;;;;;;;7.91;65.59;95819.63;4171296;28;5743;-74
2021/12/25 12:00:52;;;;;;;;;;;;;;;7.94;66.18;95814.81;4171565;28;5736;-74
2021/12/25 12:02:54;;;;;;;;;;;;;;;8.03;66.32;95816.22;4184303;28;5710;-74
2021/12/25 12:05:17;;;;;;;;;;;;;;;8.10;66.51;95818.84;4188237;28;5887;-73
2021/12/25 12:07:23;;;;;;;;;;;;;;;8.09;66.31;95811.97;4186269;28;5778;-74
2021/12/25 12:09:48;;;;;;;;;;;;;;;8.05;66.77;95810.75;4186141;28;5650;-74
2021/12/25 12:12:18;;;;;;;;;;;;;;;8.04;66.85;95804.69;4204250;28;5783;-74
2021/12/25 12:14:22;;;;;;;;;;;;;;;8.12;66.50;95795.78;4204278;28;5619;-74
2021/12/25 12:16:52;;;;;;;;;;;;;;;8.17;66.32;95809.97;4186105;28;5815;-74
2021/12/25 12:18:54;;;;;;;;;;;;;;;8.11;66.45;95804.69;4202131;28;5748;-74
2021/12/25 12:21:09;;;;;;;;;;;;;;;8.12;66.29;95801.84;4203680;28;6736;-74
2021/12/25 12:26:03;;;;;;;;;;;;;;;7.93;66.66;95807.91;4204417;28;5773;-74
2021/12/25 12:28:06;;;;;;;;;;;;;;;7.71;68.61;95809.91;4204326;28;6311;-74
2021/12/25 12:30:11;;;;;;;;;;;;;;;7.68;69.66;95814.72;4186239;28;5754;-74
2021/12/25 12:32:18;;;;;;;;;;;;;;;7.77;69.10;95811.72;4204266;28;5768;-74
2021/12/25 12:34:29;;;;;;;;;;;;;;;7.67;69.13;95813.91;4186368;28;5750;-74
2021/12/25 12:36:32;;;;;;;;;;;;;;;7.86;68.68;95815.78;4186861;28;5759;-74
2021/12/25 12:38:42;;;;;;;;;;;;;;;7.89;68.81;95812.75;4185912;28;5650;-74
2021/12/25 12:40:44;;;;;;;;;;;;;;;8.02;68.65;95811.97;4186137;28;5637;-74
2021/12/25 12:42:50;;;;;;;;;;;;;;;7.77;71.52;95806.47;4186048;28;5726;-74
2021/12/25 12:45:08;;;;;;;;;;;;;;;7.84;71.00;95801.22;4185821;28;5645;-74
2021/12/25 12:47:17;;;;;;;;;;;;;;;7.89;71.26;95796.16;4185796;28;5649;-74
2021/12/25 12:49:21;;;;;;;;;;;;;;;7.94;71.46;95811.34;4204176;28;5623;-74
2021/12/25 12:51:22;;;;;;;;;;;;;;;8.00;71.48;95808.72;4204063;28;5622;-74
2021/12/25 12:53:25;;;;;;;;;;;;;;;7.74;73.56;95814.75;4201831;28;5755;-74
2021/12/25 12:55:32;;;;;;;;;;;;;;;7.38;75.12;95809.81;4203695;28;5717;-74
2021/12/25 12:57:35;;;;;;;;;;;;;;;7.26;75.05;95798.22;4203599;28;5630;-74
2021/12/25 12:59:53;;;;;;;;;;;;;;;7.10;77.04;95807.25;4202250;28;5793;-74
2021/12/25 13:02:02;;;;;;;;;;;;;;;7.03;78.30;95803.78;4185694;28;6469;-74
2021/12/25 13:04:04;;;;;;;;;;;;;;;7.02;78.58;95804.78;4168553;28;5661;-74
2021/12/25 13:06:11;;;;;;;;;;;;;;;7.08;77.33;95805.81;4203604;28;5620;-73
2021/12/25 13:08:18;;;;;;;;;;;;;;;7.11;77.85;95808.06;4203359;28;5659;-74
2021/12/25 13:12:42;;;;;;;;;;;;;;;7.47;75.67;95813.84;4185413;28;5760;-74
2021/12/25 13:14:56;;;;;;;;;;;;;;;7.38;76.21;95815.06;4203305;28;5765;-74
2021/12/25 13:16:58;;;;;;;;;;;;;;;7.47;76.13;95826.19;4185464;28;6327;-74
2021/12/25 13:19:05;;;;;;;;;;;;;;;7.48;76.35;95815.50;4203342;28;5671;-74
2021/12/25 13:21:11;;;;;;;;;;;;;;;7.46;76.47;95817.50;4185154;28;5714;-74
2021/12/25 13:23:13;;;;;;;;;;;;;;;7.32;77.87;95815.84;4203198;28;5727;-74
2021/12/25 13:25:19;;;;;;;;;;;;;;;7.17;78.50;95809.91;4185564;28;5700;-74
2021/12/25 13:27:22;;;;;;;;;;;;;;;7.14;77.78;95811.13;4185193;28;5647;-74
2021/12/25 13:29:24;;;;;;;;;;;;;;;7.23;77.30;95817.00;4185560;28;5773;-74
2021/12/25 13:31:30;;;;;;;;;;;;;;;7.31;76.94;95819.47;4185210;28;5701;-74
2021/12/25 13:33:41;;;;;;;;;;;;;;;7.29;77.73;95821.50;4203030;28;5707;-74
2021/12/25 13:35:43;;;;;;;;;;;;;;;7.15;78.52;95819.81;4203360;28;5631;-74
2021/12/25 13:37:59;;;;;;;;;;;;;;;7.11;79.29;95815.94;4203412;28;5627;-74
2021/12/25 13:40:07;;;;;;;;;;;;;;;7.25;78.19;95822.91;4203040;28;5663;-74
2021/12/25 13:42:12;;;;;;;;;;;;;;;7.40;77.70;95818.28;4202990;28;6272;-74
2021/12/25 13:44:25;;;;;;;;;;;;;;;7.19;78.82;95816.59;4202920;28;5682;-74
2021/12/25 13:46:39;;;;;;;;;;;;;;;7.26;77.84;95814.00;4185471;28;5657;-74
2021/12/25 13:48:40;;;;;;;;;;;;;;;7.44;77.47;95814.25;4202707;28;5615;-75
2021/12/25 13:50:42;;;;;;;;;;;;;;;7.55;76.52;95831.28;4202828;28;5634;-74
2021/12/25 13:52:53;;;;;;;;;;;;;;;7.53;77.22;95828.84;4202700;28;6355;-74
2021/12/25 13:54:55;;;;;;;;;;;;;;;7.25;77.51;95822.91;4202714;28;5627;-74
2021/12/25 13:56:57;;;;;;;;;;;;;;;7.43;76.86;95828.41;4202863;28;5635;-74
2021/12/25 13:59:08;;;;;;;;;;;;;;;7.47;78.03;95832.25;4167964;28;5668;-74
2021/12/25 14:01:15;;;;;;;;;;;;;;;7.57;77.88;95824.81;4186132;28;5682;-74
2021/12/25 14:03:23;;;;;;;;;;;;;;;7.63;77.27;95820.59;4185619;28;5646;-74
2021/12/25 14:05:28;;;;;;;;;;;;;;;7.72;77.57;95815.97;4185648;28;5731;-74
2021/12/25 14:07:30;;;;;;;;;;;;;;;7.83;76.95;95818.03;4168638;28;5772;-74
2021/12/25 14:09:33;;;;;;;;;;;;;;;7.88;76.79;95823.47;4167986;28;5657;-74
2021/12/25 14:11:34;;;;;;;;;;;;;;;7.95;77.50;95824.31;4168154;28;5676;-74
2021/12/25 14:13:36;;;;;;;;;;;;;;;7.98;77.92;95823.91;4185505;28;5726;-74
2021/12/25 14:15:41;;;;;;;;;;;;;;;7.98;78.24;95823.91;4185819;28;5677;-73
2021/12/25 14:17:45;;;;;;;;;;;;;;;7.97;79.68;95830.19;4186120;28;5649;-74
2021/12/25 14:19:47;;;;;;;;;;;;;;;7.87;80.22;95837.66;4168302;28;5724;-73
2021/12/25 14:21:57;;;;;;;;;;;;;;;7.83;79.69;95831.19;4184475;28;5646;-73
2021/12/25 14:24:02;;;;;;;;;;;;;;;7.77;80.73;95829.31;4168556;28;5664;-74
2021/12/25 14:26:04;;;;;;;;;;;;;;;7.77;80.39;95830.13;4168009;28;5788;-73
2021/12/25 14:28:16;;;;;;;;;;;;;;;7.72;81.14;95821.22;4185743;28;5806;-73
2021/12/25 14:30:17;;;;;;;;;;;;;;;7.72;80.46;95821.22;4168414;28;5664;-74
2021/12/25 14:32:25;;;;;;;;;;;;;;;7.66;80.64;95822.81;4185644;28;5653;-73
2021/12/25 14:34:29;;;;;;;;;;;;;;;7.68;80.10;95823.44;4168207;28;5749;-73
2021/12/25 14:36:40;;;;;;;;;;;;;;;7.68;79.73;95814.72;4185604;28;5649;-73
2021/12/25 14:38:45;;;;;;;;;;;;;;;7.69;79.45;95816.34;4185590;28;5669;-73
2021/12/25 14:40:50;;;;;;;;;;;;;;;7.71;79.60;95819.63;4186082;28;6318;-73
2021/12/25 14:42:59;;;;;;;;;;;;;;;7.73;79.59;95807.06;4185489;28;5641;-73
2021/12/25 14:45:01;;;;;;;;;;;;;;;7.74;79.81;95808.69;4185654;28;5650;-74
2021/12/25 14:47:10;;;;;;;;;;;;;;;7.73;80.36;95814.97;4185299;28;5638;-73
2021/12/25 14:49:12;;;;;;;;;;;;;;;7.70;80.38;95817.97;4183973;28;5641;-73
2021/12/25 14:51:22;;;;;;;;;;;;;;;7.67;80.69;95818.38;4185327;28;6310;-73
2021/12/25 14:53:25;;;;;;;;;;;;;;;7.63;80.86;95819.78;4185328;28;5637;-74
2021/12/25 14:55:36;;;;;;;;;;;;;;;7.59;80.86;95812.31;4185630;28;5748;-74
2021/12/25 14:57:38;;;;;;;;;;;;;;;7.59;79.75;95817.56;4188375;28;6659;-74
2021/12/25 14:59:41;;;;;;;;;;;;;;;7.63;79.30;95822.41;4184123;28;5776;-74
2021/12/25 15:01:46;;;;;;;;;;;;;;;7.64;79.63;95821.41;4201878;28;5643;-74
2021/12/25 15:04:25;;;;;;;;;;;;;;;7.55;79.56;95826.84;4202488;28;5717;-74
2021/12/25 15:06:26;;;;;;;;;;;;;;;7.62;79.37;95832.13;4199487;28;5691;-73
2021/12/25 15:08:35;;;;;;;;;;;;;;;7.59;79.18;95832.53;4167812;28;5863;-73
2021/12/25 15:10:37;;;;;;;;;;;;;;;7.63;78.97;95822.41;4201678;28;5683;-73
2021/12/25 15:12:39;;;;;;;;;;;;;;;7.47;80.28;95827.00;4184379;28;5718;-74
2021/12/25 15:14:44;;;;;;;;;;;;;;;7.26;82.04;95835.03;4183345;28;5642;-73
2021/12/25 15:16:51;;;;;;;;;;;;;;;7.15;82.08;95835.59;4202681;28;5731;-73
2021/12/25 15:18:53;;;;;;;;;;;;;;;7.13;82.01;95827.06;4204049;28;5763;-73
2021/12/25 15:21:12;;;;;;;;;;;;;;;7.25;81.39;95828.16;4205083;28;5620;-73
2021/12/25 15:23:18;;;;;;;;;;;;;;;7.40;80.33;95839.34;4187050;28;6378;-73
2021/12/25 15:25:25;;;;;;;;;;;;;;;7.53;79.88;95839.38;4187263;28;5649;-73
2021/12/25 15:27:51;;;;;;;;;;;;;;;7.59;79.82;95833.34;4187555;28;5642;-73
2021/12/25 15:29:55;;;;;;;;;;;;;;;7.57;79.89;95840.59;4204805;28;5639;-73
2021/12/25 15:32:00;;;;;;;;;;;;;;;7.55;79.78;95837.34;4205225;28;5682;-74
2021/12/25 15:34:17;;;;;;;;;;;;;;;7.57;79.46;95835.34;4205038;28;5630;-73
2021/12/25 15:36:20;;;;;;;;;;;;;;;7.43;80.42;95828.41;4205211;28;5652;-74
2021/12/25 15:38:29;;;;;;;;;;;;;;;7.12;81.54;95831.50;4204872;28;5620;-74
2021/12/25 15:40:37;;;;;;;;;;;;;;;7.26;80.45;95832.41;4205103;28;5626;-74
2021/12/25 15:42:39;;;;;;;;;;;;;;;7.28;80.88;95833.81;4187668;28;5658;-74
2021/12/25 15:44:42;;;;;;;;;;;;;;;7.33;80.43;95833.22;4170991;28;5656;-74
2021/12/25 15:46:45;;;;;;;;;;;;;;;7.08;81.28;95835.53;4187457;28;5740;-73
2021/12/25 15:48:46;;;;;;;;;;;;;;;7.06;80.99;95837.56;4204461;28;5789;-73
2021/12/25 15:50:48;;;;;;;;;;;;;;;7.05;81.65;95841.19;4187044;28;5725;-74
2021/12/25 15:52:50;;;;;;;;;;;;;;;7.12;81.08;95838.59;4204329;28;5619;-73
2021/12/25 15:54:51;;;;;;;;;;;;;;;7.13;80.87;95842.84;4204410;28;5651;-73
2021/12/25 15:56:57;;;;;;;;;;;;;;;7.20;81.17;95833.97;4204142;28;5786;-73
2021/12/25 15:58:59;;;;;;;;;;;;;;;7.23;81.05;95838.84;4186483;28;5660;-74
2021/12/25 16:01:01;;;;;;;;;;;;;;;7.13;81.31;95842.84;4204193;28;5728;-74
2021/12/25 16:03:03;;;;;;;;;;;;;;;6.92;81.87;95843.75;4204207;28;5630;-74
2021/12/25 16:05:06;;;;;;;;;;;;;;;7.04;81.09;95844.03;4203875;28;5620;-73
2021/12/25 16:07:09;;;;;;;;;;;;;;;7.12;80.66;95843.84;4204388;28;6348;-73
2021/12/25 16:09:11;;;;;;;;;;;;;;;7.09;80.88;95841.59;4186352;28;5760;-73
2021/12/25 16:11:14;;;;;;;;;;;;;;;7.11;80.35;95844.84;4186151;28;5650;-73
2021/12/25 16:13:19;;;;;;;;;;;;;;;6.93;81.66;95837.50;4204533;28;5010;-73
2021/12/25 16:15:21;;;;;;;;;;;;;;;7.12;80.32;95833.31;4186398;28;5634;-73
2021/12/25 16:17:23;;;;;;;;;;;;;;;7.18;79.98;95835.19;4204237;28;5647;-74
2021/12/25 16:19:26;;;;;;;;;;;;;;;7.15;80.05;95838.22;4186410;28;5635;-73
2021/12/25 16:21:27;;;;;;;;;;;;;;;7.19;79.75;95829.72;4204411;28;5073;-73
2021/12/25 16:23:33;;;;;;;;;;;;;;;7.05;80.44;95830.69;4169920;28;5646;-74
2021/12/25 16:25:35;;;;;;;;;;;;;;;7.12;80.15;95828.06;4204017;28;5756;-74
2021/12/25 16:27:37;;;;;;;;;;;;;;;7.22;79.62;95833.78;4203467;28;5627;-73
2021/12/25 16:29:39;;;;;;;;;;;;;;;7.38;78.77;95836.09;4204097;28;5715;-74
2021/12/25 16:31:41;;;;;;;;;;;;;;;7.49;78.64;95838.16;4186405;28;5638;-74
2021/12/25 16:33:43;;;;;;;;;;;;;;;7.53;78.49;95842.00;4204337;28;5762;-73
2021/12/25 16:35:46;;;;;;;;;;;;;;;7.55;77.89;95839.19;4186035;28;5638;-74
2021/12/25 16:37:48;;;;;;;;;;;;;;;7.52;78.05;95843.00;4203936;28;5738;-73
2021/12/25 16:39:51;;;;;;;;;;;;;;;7.53;77.93;95844.63;4203878;28;5627;-73
2021/12/25 16:41:53;;;;;;;;;;;;;;;7.58;77.74;95836.94;4186537;28;5646;-73
2021/12/25 16:43:57;;;;;;;;;;;;;;;7.61;77.33;95835.78;4203910;28;5714;-73
2021/12/25 16:45:59;;;;;;;;;;;;;;;7.61;77.19;95842.84;4203699;28;5631;-74
2021/12/25 16:48:01;;;;;;;;;;;;;;;7.61;77.21;95840.22;4203835;28;5648;-73
2021/12/25 16:50:04;;;;;;;;;;;;;;;7.63;77.30;95848.72;4186039;28;5762;-74
2021/12/25 16:52:06;;;;;;;;;;;;;;;7.58;77.54;95834.31;4169233;28;5671;-74
2021/12/25 16:54:11;;;;;;;;;;;;;;;7.62;77.37;95839.22;4169150;28;5764;-74
2021/12/25 16:56:12;;;;;;;;;;;;;;;7.60;77.32;95839.41;4203397;28;5631;-74
2021/12/25 16:58:14;;;;;;;;;;;;;;;7.61;77.15;95837.59;4203873;28;5635;-74
2021/12/25 17:00:20;;;;;;;;;;;;;;;7.46;77.66;95842.97;4203470;28;5627;-73
2021/12/25 17:02:25;;;;;;;;;;;;;;;7.43;78.21;95838.94;4203677;28;5619;-73
2021/12/25 17:04:29;;;;;;;;;;;;;;;7.41;78.36;95840.94;4185744;28;5639;-73
2021/12/25 17:06:31;;;;;;;;;;;;;;;7.36;78.68;95834.66;4185331;28;5654;-73
2021/12/25 17:08:32;;;;;;;;;;;;;;;7.21;80.25;95840.06;4203783;28;5630;-74
2021/12/25 17:10:35;;;;;;;;;;;;;;;7.23;80.12;95833.59;4203345;28;5615;-74
2021/12/25 17:12:39;;;;;;;;;;;;;;;7.12;80.67;95835.94;4183908;28;5974;-73
2021/12/25 17:14:42;;;;;;;;;;;;;;;7.10;80.78;95833.53;4192009;28;5769;-74
2021/12/25 17:16:44;;;;;;;;;;;;;;;7.03;80.90;95845.03;4198227;28;5648;-76
2021/12/25 17:18:46;;;;;;;;;;;;;;;6.90;81.60;95836.03;4197758;28;6472;-73
2021/12/25 17:20:51;;;;;;;;;;;;;;;6.86;82.08;95837.44;4197548;28;5702;-73
2021/12/25 17:22:54;;;;;;;;;;;;;;;7.05;80.87;95829.88;4182394;28;5653;-73
2021/12/25 17:24:56;;;;;;;;;;;;;;;7.07;80.88;95838.38;4179117;28;5646;-73
2021/12/25 17:26:58;;;;;;;;;;;;;;;7.10;80.75;95837.97;4198299;28;6324;-73
2021/12/25 17:29:00;;;;;;;;;;;;;;;6.96;82.33;95834.47;4198074;28;5639;-73
2021/12/25 17:31:02;;;;;;;;;;;;;;;7.05;81.42;95835.13;4186799;28;5674;-73
2021/12/25 17:33:05;;;;;;;;;;;;;;;7.19;80.48;95848.13;4198450;28;5651;-74
2021/12/25 17:35:11;;;;;;;;;;;;;;;7.31;79.80;95845.75;4202000;28;5714;-74
2021/12/25 17:37:13;;;;;;;;;;;;;;;7.36;79.70;95843.38;4199978;28;5626;-74
2021/12/25 17:39:16;;;;;;;;;;;;;;;7.38;79.96;95841.34;4196366;28;5682;-74
2021/12/25 17:41:32;;;;;;;;;;;;;;;7.31;80.92;95837.88;4190327;28;5948;-73
2021/12/25 17:43:34;;;;;;;;;;;;;;;7.10;81.69;95837.97;4193258;28;5711;-73
2021/12/25 17:45:38;;;;;;;;;;;;;;;7.09;81.14;95841.59;4195887;28;5800;-74
2021/12/25 17:47:42;;;;;;;;;;;;;;;7.29;80.20;95838.06;4178321;28;5783;-73
2021/12/25 17:49:44;;;;;;;;;;;;;;;7.45;79.69;95836.09;4197461;28;5781;-74
2021/12/25 17:51:46;;;;;;;;;;;;;;;7.55;79.51;95842.63;4198633;28;5751;-74
2021/12/25 17:53:50;;;;;;;;;;;;;;;7.40;80.21;95847.22;4197170;28;5760;-74
2021/12/25 17:55:53;;;;;;;;;;;;;;;7.25;81.44;95842.09;4196975;28;6444;-74
2021/12/25 17:57:57;;;;;;;;;;;;;;;7.15;81.83;95843.47;4198596;28;7221;-74
2021/12/25 18:00:01;;;;;;;;;;;;;;;7.26;80.83;95842.91;4198487;28;5737;-74
2021/12/25 18:02:05;;;;;;;;;;;;;;;7.42;80.43;95845.19;4179906;28;5772;-74
2021/12/25 18:04:07;;;;;;;;;;;;;;;7.47;79.59;95840.16;4180389;28;5787;-73
2021/12/25 18:06:10;;;;;;;;;;;;;;;7.27;81.71;95842.72;4194841;28;5840;-74
2021/12/25 18:08:12;;;;;;;;;;;;;;;7.26;81.34;95845.53;4194234;28;5706;-73
2021/12/25 18:10:19;;;;;;;;;;;;;;;7.43;80.23;95846.00;4195683;28;5872;-74
2021/12/25 18:12:21;;;;;;;;;;;;;;;7.49;79.80;95842.59;4195597;28;5644;-73
2021/12/25 18:14:23;;;;;;;;;;;;;;;7.55;79.85;95839.19;4199318;28;5726;-74
2021/12/25 18:16:25;;;;;;;;;;;;;;;7.53;79.78;95836.75;4195617;28;5718;-74
2021/12/25 18:18:26;;;;;;;;;;;;;;;7.59;79.43;95837.78;4196388;28;5867;-74
2021/12/25 18:20:30;;;;;;;;;;;;;;;7.62;79.38;95836.59;4196889;28;5766;-74
2021/12/25 18:22:33;;;;;;;;;;;;;;;7.58;79.87;95836.94;4176623;28;5666;-74